Time;durP1;ratioP1;P1;durP2;ratioP2;P2;SDS_P1;SDS_P2;PMS_P1;PMS_P2;Temp;Humidity;BMP_temperature;BMP_pressure;BME280_temperature;BME280_humidity;BME280_pressure;Samples;Min_cycle;Max_cycle;Signal;HPM_P1;HPM_P2
2024/01/12 00:01:44;;;;;;;42.55;37.13;;;-0.90;99.90;;;;;;5009926;28;20037;-93
2024/01/12 00:04:10;;;;;;;41.75;36.13;;;-1.30;99.90;;;;;;5027225;28;20059;-93
2024/01/12 00:06:36;;;;;;;40.35;35.63;;;-0.70;99.90;;;;;;4993174;28;20128;-93
2024/01/12 00:09:03;;;;;;;42.47;37.75;;;-1.20;99.90;;;;;;5026064;28;20108;-93
2024/01/12 00:11:29;;;;;;;40.70;36.58;;;-1.30;99.90;;;;;;5010077;28;20501;-93
2024/01/12 00:13:55;;;;;;;41.72;35.90;;;-0.90;99.90;;;;;;5013126;28;20046;-94
2024/01/12 00:16:21;;;;;;;44.80;36.90;;;-1.30;99.90;;;;;;4991107;28;20117;-93
2024/01/12 00:18:46;;;;;;;46.70;37.05;;;-0.60;99.90;;;;;;4989235;28;20053;-93
2024/01/12 00:21:12;;;;;;;46.25;35.90;;;-0.90;99.90;;;;;;4974147;28;20120;-93
2024/01/12 00:23:38;;;;;;;43.60;35.67;;;-1.10;99.90;;;;;;5005334;28;20069;-93
2024/01/12 00:26:04;;;;;;;39.65;35.38;;;-1.20;99.90;;;;;;4974339;28;20063;-93
2024/01/12 00:28:32;;;;;;;44.65;35.80;;;-0.90;99.90;;;;;;4974056;28;20072;-94
2024/01/12 00:30:58;;;;;;;40.22;35.85;;;-0.60;99.90;;;;;;4990144;28;20080;-94
2024/01/12 00:33:24;;;;;;;38.63;35.03;;;-0.50;99.90;;;;;;4990603;28;20038;-94
2024/01/12 00:35:50;;;;;;;44.95;34.85;;;-1.00;99.90;;;;;;4972588;28;20049;-93
2024/01/12 00:38:15;;;;;;;38.65;34.38;;;-1.00;99.90;;;;;;4973959;28;20042;-94
2024/01/12 00:40:41;;;;;;;42.05;33.10;;;-0.90;99.90;;;;;;4988102;28;20042;-94
2024/01/12 00:43:07;;;;;;;42.58;35.15;;;-0.90;99.90;;;;;;4990434;28;20053;-93
2024/01/12 00:45:34;;;;;;;39.08;31.33;;;-0.30;99.90;;;;;;4973347;28;20057;-92
2024/01/12 00:48:00;;;;;;;35.60;31.85;;;-0.60;99.90;;;;;;4989073;28;20136;-92
2024/01/12 00:50:25;;;;;;;40.65;32.78;;;-0.90;99.90;;;;;;5005900;28;20046;-91
2024/01/12 00:52:51;;;;;;;36.05;31.75;;;-0.80;99.90;;;;;;4972315;28;20053;-92
2024/01/12 00:55:17;;;;;;;39.15;32.67;;;0.00;99.90;;;;;;4990656;28;20042;-94
2024/01/12 00:57:43;;;;;;;36.08;32.05;;;-0.70;99.90;;;;;;4988452;28;20042;-94
2024/01/12 01:00:09;;;;;;;42.35;32.17;;;-0.50;99.90;;;;;;4974013;28;20096;-93
2024/01/12 01:02:35;;;;;;;36.92;31.48;;;-0.60;99.90;;;;;;4989123;28;20469;-94
2024/01/12 01:05:02;;;;;;;35.67;31.63;;;-0.20;99.90;;;;;;5005331;28;20145;-94
2024/01/12 01:07:28;;;;;;;34.80;29.98;;;-0.60;99.90;;;;;;5005759;28;20041;-93
2024/01/12 01:09:54;;;;;;;35.90;30.92;;;-0.20;99.90;;;;;;4987957;28;20124;-95
2024/01/12 01:12:20;;;;;;;33.40;29.90;;;-0.30;99.90;;;;;;4990305;28;20057;-94
2024/01/12 01:14:46;;;;;;;34.50;28.15;;;-0.50;99.90;;;;;;4989031;28;20057;-93
2024/01/12 01:17:12;;;;;;;33.33;27.48;;;0.00;99.90;;;;;;4993183;28;20046;-94
2024/01/12 01:19:38;;;;;;;31.95;28.08;;;-0.10;99.90;;;;;;4991646;28;20056;-95
2024/01/12 01:22:04;;;;;;;32.28;28.90;;;-0.20;99.90;;;;;;5025034;28;20049;-93
2024/01/12 01:24:30;;;;;;;35.08;31.20;;;-0.30;99.90;;;;;;5008971;28;20046;-94
2024/01/12 01:26:57;;;;;;;34.45;29.48;;;-0.30;99.90;;;;;;5007499;28;20056;-93
2024/01/12 01:29:22;;;;;;;31.15;27.98;;;-0.30;99.90;;;;;;5008734;28;20052;-94
2024/01/12 01:31:48;;;;;;;31.67;28.45;;;-0.30;99.90;;;;;;4990579;28;20069;-94
2024/01/12 01:34:15;;;;;;;29.58;26.42;;;1.10;99.90;;;;;;5008685;28;20038;-95
2024/01/12 01:36:41;;;;;;;29.35;26.30;;;-0.20;99.90;;;;;;5007292;28;20033;-95
2024/01/12 01:39:07;;;;;;;31.83;27.65;;;-0.20;99.90;;;;;;4991843;28;20113;-93
2024/01/12 01:41:33;;;;;;;35.47;28.60;;;-0.20;99.90;;;;;;4991741;28;20033;-93
2024/01/12 01:43:58;;;;;;;29.38;26.33;;;-0.20;99.90;;;;;;4991110;28;20051;-93
2024/01/12 01:46:26;;;;;;;30.40;27.10;;;0.40;99.90;;;;;;4992478;28;20101;-94
2024/01/12 01:48:52;;;;;;;30.48;27.17;;;0.90;99.90;;;;;;5007310;28;20054;-95
2024/01/12 01:51:18;;;;;;;28.20;25.27;;;1.00;99.90;;;;;;5009098;28;20072;-95
2024/01/12 01:53:43;;;;;;;28.88;25.17;;;-0.10;99.90;;;;;;5007222;28;20045;-95
2024/01/12 01:56:11;;;;;;;25.77;23.42;;;-0.10;99.90;;;;;;4991582;28;20432;-95
2024/01/12 01:58:37;;;;;;;25.77;23.48;;;0.00;99.90;;;;;;5007766;28;20056;-95
2024/01/12 02:01:05;;;;;;;25.30;23.05;;;0.30;99.90;;;;;;5023422;28;20095;-95
2024/01/12 02:03:31;;;;;;;24.90;22.63;;;0.20;99.90;;;;;;5008264;28;20413;-95
2024/01/12 02:05:57;;;;;;;25.80;23.48;;;0.00;99.90;;;;;;5006787;28;20044;-95
2024/01/12 02:08:25;;;;;;;25.38;22.80;;;0.20;99.90;;;;;;5028216;28;20053;-95
2024/01/12 02:10:55;;;;;;;23.98;21.95;;;0.40;99.90;;;;;;5003886;28;20042;-93
2024/01/12 02:13:22;;;;;;;24.73;22.77;;;1.30;99.90;;;;;;4992276;28;20041;-94
2024/01/12 02:15:48;;;;;;;30.90;22.70;;;0.10;99.90;;;;;;5007708;28;20045;-93
2024/01/12 02:18:13;;;;;;;24.80;22.77;;;0.10;99.90;;;;;;4974223;28;20101;-93
2024/01/12 02:20:39;;;;;;;24.70;22.55;;;0.30;99.90;;;;;;4976045;28;20052;-92
2024/01/12 02:23:05;;;;;;;25.73;23.40;;;0.50;99.90;;;;;;4974093;28;20038;-94
2024/01/12 02:25:31;;;;;;;25.08;22.65;;;0.20;99.90;;;;;;4976020;28;20045;-92
2024/01/12 02:27:57;;;;;;;23.58;21.67;;;0.20;99.90;;;;;;4974165;28;20408;-93
2024/01/12 02:30:23;;;;;;;25.48;23.40;;;0.20;99.90;;;;;;4975743;28;20049;-93
2024/01/12 02:32:48;;;;;;;24.40;22.27;;;0.30;99.90;;;;;;5007358;28;20037;-94
2024/01/12 02:35:14;;;;;;;24.65;22.50;;;0.20;99.90;;;;;;4975172;28;20045;-93
2024/01/12 02:37:40;;;;;;;23.90;21.95;;;0.40;99.90;;;;;;4975480;28;20042;-92
2024/01/12 02:40:06;;;;;;;26.58;23.90;;;1.10;99.90;;;;;;4989260;28;20508;-92
2024/01/12 02:42:32;;;;;;;25.88;23.42;;;0.30;99.90;;;;;;4975756;28;20042;-92
2024/01/12 02:44:58;;;;;;;26.70;24.38;;;0.30;99.90;;;;;;4994404;28;20071;-94
2024/01/12 02:47:25;;;;;;;25.45;23.42;;;0.50;99.90;;;;;;4996028;28;20069;-94
2024/01/12 02:49:51;;;;;;;25.00;22.83;;;0.30;99.90;;;;;;4979222;28;20104;-92
2024/01/12 02:52:17;;;;;;;23.73;21.85;;;0.30;99.90;;;;;;5002261;28;20072;-92
2024/01/12 02:54:45;;;;;;;24.90;22.38;;;0.40;99.90;;;;;;4996219;28;20054;-93
2024/01/12 02:57:12;;;;;;;25.55;22.95;;;0.40;99.90;;;;;;4993864;28;20080;-93
2024/01/12 02:59:38;;;;;;;25.13;22.60;;;0.60;99.90;;;;;;5011917;28;20163;-94
2024/01/12 03:02:03;;;;;;;23.25;21.40;;;0.50;99.90;;;;;;4993965;28;20049;-91
2024/01/12 03:04:29;;;;;;;24.27;22.27;;;0.40;99.90;;;;;;4994942;28;20045;-93
2024/01/12 03:06:55;;;;;;;24.80;22.55;;;0.40;99.90;;;;;;4994326;28;20041;-93
2024/01/12 03:09:22;;;;;;;23.17;21.50;;;0.50;99.90;;;;;;5010420;28;20462;-94
2024/01/12 03:11:48;;;;;;;23.48;21.65;;;0.80;99.90;;;;;;4994384;28;20128;-91
2024/01/12 03:14:13;;;;;;;23.60;21.55;;;0.50;99.90;;;;;;5008678;28;20064;-91
2024/01/12 03:16:39;;;;;;;24.00;22.15;;;0.60;99.90;;;;;;4994804;28;20049;-81
2024/01/12 03:19:05;;;;;;;25.48;22.98;;;0.50;99.90;;;;;;5009262;28;20124;-79
2024/01/12 03:21:30;;;;;;;25.60;23.50;;;0.50;99.90;;;;;;5011218;28;20557;-79
2024/01/12 03:23:56;;;;;;;24.00;21.88;;;0.50;99.90;;;;;;5009627;28;20076;-78
2024/01/12 03:26:22;;;;;;;26.15;23.77;;;0.50;99.90;;;;;;4993901;28;20060;-79
2024/01/12 03:28:47;;;;;;;23.88;22.08;;;0.60;99.90;;;;;;5010250;28;20489;-79
2024/01/12 03:31:14;;;;;;;24.00;22.10;;;0.60;99.90;;;;;;5008876;28;20044;-79
2024/01/12 03:33:39;;;;;;;24.23;22.08;;;0.60;99.90;;;;;;5026860;28;20049;-79
2024/01/12 03:36:06;;;;;;;26.55;23.65;;;0.60;99.90;;;;;;5008959;28;20045;-80
2024/01/12 03:38:32;;;;;;;24.38;22.25;;;0.60;99.90;;;;;;5026995;28;20105;-79
2024/01/12 03:40:57;;;;;;;23.92;21.98;;;0.60;99.90;;;;;;5008807;28;20045;-80
2024/01/12 03:43:23;;;;;;;22.85;21.17;;;0.80;99.90;;;;;;5009992;28;20046;-80
2024/01/12 03:45:49;;;;;;;23.85;21.83;;;0.90;99.90;;;;;;4993804;28;20038;-79
2024/01/12 03:48:14;;;;;;;22.42;20.65;;;1.10;99.90;;;;;;5025388;28;20049;-80
2024/01/12 03:50:40;;;;;;;24.23;22.25;;;0.70;99.90;;;;;;4993605;28;20045;-80
2024/01/12 03:53:06;;;;;;;23.10;21.23;;;0.70;99.90;;;;;;5024930;28;20049;-80
2024/01/12 03:55:31;;;;;;;24.75;22.75;;;0.70;99.90;;;;;;5024996;28;20042;-80
2024/01/12 03:57:58;;;;;;;25.30;23.10;;;0.70;99.90;;;;;;5008805;28;20052;-80
2024/01/12 04:00:24;;;;;;;26.08;23.73;;;0.80;99.90;;;;;;4993645;28;20065;-80
2024/01/12 04:02:55;;;;;;;25.13;23.42;;;0.70;99.90;;;;;;5009512;28;20056;-79
2024/01/12 04:05:20;;;;;;;24.67;22.83;;;0.70;99.90;;;;;;5024883;28;20065;-79
2024/01/12 04:07:46;;;;;;;24.08;22.58;;;1.00;99.90;;;;;;5009929;28;20041;-78
2024/01/12 04:10:12;;;;;;;26.58;24.17;;;0.60;99.90;;;;;;5007125;28;20532;-80
2024/01/12 04:12:38;;;;;;;25.02;23.33;;;0.60;99.90;;;;;;4995816;28;20084;-80
2024/01/12 04:15:06;;;;;;;26.05;24.20;;;0.70;99.90;;;;;;5024126;28;20037;-80
2024/01/12 04:17:31;;;;;;;25.52;23.85;;;0.60;99.90;;;;;;5025931;28;20046;-80
2024/01/12 04:19:57;;;;;;;24.52;22.92;;;0.60;99.90;;;;;;5025452;28;20049;-80
2024/01/12 04:22:23;;;;;;;24.70;23.20;;;0.60;99.90;;;;;;5025272;28;20033;-80
2024/01/12 04:24:49;;;;;;;24.27;22.83;;;0.70;99.90;;;;;;4993725;28;20101;-80
2024/01/12 04:27:14;;;;;;;24.52;22.83;;;0.90;99.90;;;;;;4991622;28;20048;-80
2024/01/12 04:29:40;;;;;;;25.30;23.23;;;0.90;99.90;;;;;;5009426;28;20104;-80
2024/01/12 04:32:06;;;;;;;24.27;22.63;;;0.80;99.90;;;;;;5007839;28;20061;-80
2024/01/12 04:34:36;;;;;;;24.23;22.13;;;0.80;99.90;;;;;;5025484;28;20069;-80
2024/01/12 04:37:01;;;;;;;23.58;21.88;;;0.80;99.90;;;;;;5008418;28;20046;-80
2024/01/12 04:39:27;;;;;;;23.40;21.73;;;0.80;99.90;;;;;;5024426;28;20052;-80
2024/01/12 04:41:53;;;;;;;24.35;22.02;;;0.80;99.90;;;;;;5008984;28;20052;-80
2024/01/12 04:44:18;;;;;;;23.23;21.55;;;0.80;99.90;;;;;;4991601;28;20053;-79
2024/01/12 04:46:44;;;;;;;23.95;22.15;;;0.80;99.90;;;;;;5025950;28;20045;-79
2024/01/12 04:49:10;;;;;;;24.02;22.05;;;0.80;99.90;;;;;;5007612;28;20045;-80
2024/01/12 04:51:36;;;;;;;24.23;22.52;;;0.60;99.90;;;;;;5008983;28;20049;-80
2024/01/12 04:54:01;;;;;;;23.98;22.38;;;0.60;99.90;;;;;;5008210;28;20048;-80
2024/01/12 04:56:27;;;;;;;23.98;22.33;;;0.60;99.90;;;;;;5008529;28;20041;-80
2024/01/12 04:58:53;;;;;;;25.33;23.48;;;0.50;99.90;;;;;;5025048;28;20059;-80
2024/01/12 05:01:18;;;;;;;27.52;25.38;;;0.50;99.90;;;;;;5023399;28;20077;-80
2024/01/12 05:03:44;;;;;;;25.98;23.98;;;0.80;99.90;;;;;;4976847;28;20038;-80
2024/01/12 05:06:10;;;;;;;26.85;24.73;;;0.50;99.90;;;;;;5006536;28;20077;-80
2024/01/12 05:08:37;;;;;;;26.23;23.90;;;0.40;99.90;;;;;;5005294;28;20061;-80
2024/01/12 05:11:03;;;;;;;27.70;25.05;;;0.50;99.90;;;;;;5020581;28;20450;-80
2024/01/12 05:13:29;;;;;;;26.67;24.55;;;0.30;99.90;;;;;;5014107;28;20566;-80
2024/01/12 05:15:55;;;;;;;26.42;24.63;;;0.30;99.90;;;;;;5041252;28;20041;-80
2024/01/12 05:18:21;;;;;;;26.63;24.90;;;0.40;99.90;;;;;;5023622;28;20041;-80
2024/01/12 05:20:47;;;;;;;28.02;26.00;;;0.60;99.90;;;;;;5041105;28;20049;-80
2024/01/12 05:23:13;;;;;;;28.85;26.42;;;0.30;99.90;;;;;;5039616;28;20052;-80
2024/01/12 05:25:38;;;;;;;27.90;26.27;;;0.20;99.90;;;;;;5041667;28;20049;-79
2024/01/12 05:28:04;;;;;;;28.60;26.83;;;0.20;99.90;;;;;;5023610;28;20490;-80
2024/01/12 05:30:30;;;;;;;29.48;27.52;;;0.30;99.90;;;;;;5040956;28;20051;-80
2024/01/12 05:32:56;;;;;;;30.20;28.02;;;0.30;99.90;;;;;;5040608;28;20037;-80
2024/01/12 05:35:22;;;;;;;31.20;29.20;;;0.60;99.90;;;;;;5039985;28;20059;-79
2024/01/12 05:37:48;;;;;;;30.42;28.50;;;0.40;99.90;;;;;;5040996;28;20042;-79
2024/01/12 05:40:13;;;;;;;28.45;26.63;;;0.30;99.90;;;;;;5038989;28;20108;-79
2024/01/12 05:42:39;;;;;;;30.08;28.35;;;0.30;99.90;;;;;;5041232;28;20136;-81
2024/01/12 05:45:05;;;;;;;28.67;26.42;;;0.30;99.90;;;;;;5023307;28;20033;-80
2024/01/12 05:47:31;;;;;;;29.27;27.48;;;0.30;99.90;;;;;;5040564;28;20049;-79
2024/01/12 05:49:57;;;;;;;29.10;26.98;;;0.30;99.90;;;;;;5023852;28;20056;-79
2024/01/12 05:52:23;;;;;;;28.77;26.48;;;0.30;99.90;;;;;;5039643;28;20049;-79
2024/01/12 05:54:51;;;;;;;27.33;25.58;;;0.60;99.90;;;;;;5042072;28;20107;-79
2024/01/12 05:57:17;;;;;;;26.17;24.33;;;0.40;99.90;;;;;;5039436;28;20080;-80
2024/01/12 05:59:43;;;;;;;26.08;24.48;;;0.60;99.90;;;;;;5040692;28;20051;-81
2024/01/12 06:02:13;;;;;;;25.75;24.20;;;1.00;99.90;;;;;;5006595;28;20108;-81
2024/01/12 06:04:39;;;;;;;24.35;22.30;;;1.00;99.90;;;;;;5024013;28;20069;-81
2024/01/12 06:07:04;;;;;;;24.35;22.65;;;1.20;99.90;;;;;;5040331;28;20068;-80
2024/01/12 06:09:30;;;;;;;23.83;22.05;;;0.90;99.90;;;;;;5039406;28;20568;-79
2024/01/12 06:11:56;;;;;;;22.70;21.05;;;1.20;99.90;;;;;;5007399;28;20132;-80
2024/01/12 06:14:21;;;;;;;23.27;21.02;;;0.70;99.90;;;;;;4990310;28;20038;-81
2024/01/12 06:16:47;;;;;;;24.83;21.90;;;0.70;99.90;;;;;;5039037;28;20045;-81
2024/01/12 06:19:13;;;;;;;22.38;20.90;;;0.70;99.90;;;;;;4989024;28;20053;-81
2024/01/12 06:21:40;;;;;;;22.50;20.98;;;1.20;99.90;;;;;;5007570;28;20050;-80
2024/01/12 06:24:07;;;;;;;22.13;20.60;;;0.80;99.90;;;;;;5039382;28;20128;-80
2024/01/12 06:26:33;;;;;;;21.55;19.00;;;0.80;99.90;;;;;;5039612;28;20440;-81
2024/01/12 06:28:58;;;;;;;21.75;20.00;;;0.80;99.90;;;;;;5023663;28;20045;-81
2024/01/12 06:31:31;;;;;;;20.65;18.92;;;0.80;99.90;;;;;;5022912;28;20049;-80
2024/01/12 06:33:57;;;;;;;19.45;17.88;;;0.90;99.90;;;;;;5040662;28;20041;-80
2024/01/12 06:36:23;;;;;;;20.27;18.33;;;0.80;99.90;;;;;;5038507;28;20041;-81
2024/01/12 06:38:49;;;;;;;29.33;19.27;;;0.70;99.90;;;;;;5023460;28;20049;-80
2024/01/12 06:41:14;;;;;;;21.23;19.65;;;0.80;99.90;;;;;;5006570;28;20053;-81
2024/01/12 06:43:40;;;;;;;19.40;18.00;;;0.70;99.90;;;;;;5022848;28;20097;-81
2024/01/12 06:46:06;;;;;;;20.13;18.73;;;0.80;99.90;;;;;;5040405;28;20072;-80
2024/01/12 06:48:32;;;;;;;21.35;19.10;;;0.90;99.90;;;;;;5022350;28;20049;-81
2024/01/12 06:50:58;;;;;;;21.13;19.13;;;0.80;99.90;;;;;;5023863;28;20077;-80
2024/01/12 06:53:23;;;;;;;21.55;19.17;;;0.70;99.90;;;;;;5021870;28;20109;-80
2024/01/12 06:55:49;;;;;;;20.77;19.38;;;1.10;99.90;;;;;;5023534;28;20076;-80
2024/01/12 06:58:15;;;;;;;21.60;19.95;;;0.70;99.90;;;;;;5038928;28;20508;-80
2024/01/12 07:00:40;;;;;;;21.90;19.85;;;0.70;99.90;;;;;;5039562;28;20098;-80
2024/01/12 07:03:06;;;;;;;21.77;19.98;;;0.70;99.90;;;;;;5039680;28;20056;-79
2024/01/12 07:05:32;;;;;;;20.88;19.00;;;0.90;99.90;;;;;;5022095;28;20300;-80
2024/01/12 07:07:57;;;;;;;21.95;20.13;;;0.70;99.90;;;;;;5026130;28;20087;-80
2024/01/12 07:10:23;;;;;;;23.63;20.33;;;0.60;99.90;;;;;;5024866;28;20124;-80
2024/01/12 07:12:52;;;;;;;22.55;19.88;;;0.60;99.90;;;;;;5043305;28;20037;-79
2024/01/12 07:15:18;;;;;;;21.58;19.30;;;0.70;99.90;;;;;;5003814;28;20033;-79
2024/01/12 07:17:49;;;;;;;21.63;19.58;;;0.70;99.90;;;;;;5022954;28;20084;-79
2024/01/12 07:20:15;;;;;;;25.80;19.63;;;0.70;99.90;;;;;;5040068;28;20128;-79
2024/01/12 07:22:40;;;;;;;22.35;18.33;;;0.70;99.90;;;;;;5025496;28;20098;-79
2024/01/12 07:25:07;;;;;;;22.33;20.08;;;1.20;99.90;;;;;;5026425;28;20548;-80
2024/01/12 07:27:33;;;;;;;21.08;18.33;;;0.70;99.90;;;;;;5024995;28;20072;-80
2024/01/12 07:29:58;;;;;;;26.17;19.30;;;0.70;99.90;;;;;;5012710;28;20045;-80
2024/01/12 07:32:24;;;;;;;19.90;18.17;;;0.70;99.90;;;;;;4996799;28;20041;-79
2024/01/12 07:34:50;;;;;;;36.90;19.10;;;0.70;99.90;;;;;;5013317;28;20057;-79
2024/01/12 07:37:16;;;;;;;33.10;18.92;;;0.80;99.90;;;;;;5046389;28;20053;-78
2024/01/12 07:39:42;;;;;;;37.40;20.13;;;0.70;99.90;;;;;;5045064;28;20072;-78
2024/01/12 07:42:08;;;;;;;20.92;18.58;;;0.70;99.90;;;;;;5013346;28;20108;-78
2024/01/12 07:44:36;;;;;;;23.50;17.77;;;1.30;99.90;;;;;;5012193;28;20045;-78
2024/01/12 07:47:02;;;;;;;22.67;16.77;;;0.80;99.90;;;;;;5029047;28;20049;-78
2024/01/12 07:49:27;;;;;;;19.65;15.82;;;0.70;99.90;;;;;;5025348;28;20390;-78
2024/01/12 07:51:53;;;;;;;17.00;15.40;;;0.80;99.90;;;;;;5009931;28;20096;-78
2024/01/12 07:54:18;;;;;;;17.50;15.60;;;0.80;99.90;;;;;;5025722;28;20034;-77
2024/01/12 07:56:44;;;;;;;15.63;14.05;;;0.90;99.90;;;;;;5024375;28;20076;-77
2024/01/12 07:59:11;;;;;;;16.70;15.00;;;0.90;99.90;;;;;;5026465;28;20073;-77
2024/01/12 08:01:40;;;;;;;16.05;14.55;;;0.90;99.90;;;;;;5024641;28;20048;-78
2024/01/12 08:04:06;;;;;;;16.00;14.60;;;1.60;99.90;;;;;;5009880;28;20045;-77
2024/01/12 08:06:32;;;;;;;19.23;15.77;;;0.90;99.90;;;;;;5024863;28;20103;-78
2024/01/12 08:08:58;;;;;;;20.00;15.00;;;0.90;99.90;;;;;;5042013;28;20460;-78
2024/01/12 08:11:24;;;;;;;16.38;14.82;;;0.90;99.90;;;;;;5025419;28;20402;-78
2024/01/12 08:13:49;;;;;;;16.15;14.20;;;1.20;99.90;;;;;;5036915;28;20543;-78
2024/01/12 08:16:15;;;;;;;19.40;15.55;;;0.90;99.90;;;;;;5036064;28;20119;-78
2024/01/12 08:18:41;;;;;;;16.23;14.57;;;0.90;99.90;;;;;;5034981;28;20053;-78
2024/01/12 08:21:06;;;;;;;14.45;13.05;;;0.90;99.90;;;;;;4992240;28;20053;-79
2024/01/12 08:23:32;;;;;;;20.55;14.68;;;1.10;99.90;;;;;;5002297;28;20493;-77
2024/01/12 08:25:58;;;;;;;15.30;13.63;;;0.90;99.90;;;;;;5009769;28;20064;-77
2024/01/12 08:28:23;;;;;;;15.30;13.82;;;0.90;99.90;;;;;;5030304;28;20072;-77
2024/01/12 08:30:49;;;;;;;18.65;15.05;;;1.00;99.90;;;;;;5002607;28;20037;-77
2024/01/12 08:33:15;;;;;;;19.80;14.93;;;1.30;99.90;;;;;;5010807;28;20467;-78
2024/01/12 08:35:40;;;;;;;14.70;13.43;;;1.00;99.90;;;;;;5024553;28;20049;-77
2024/01/12 08:38:06;;;;;;;15.00;13.80;;;0.90;99.90;;;;;;4990257;28;20041;-77
2024/01/12 08:40:32;;;;;;;15.48;14.18;;;1.00;99.90;;;;;;4973425;28;20497;-77
2024/01/12 08:42:58;;;;;;;18.63;14.88;;;1.00;99.90;;;;;;4995541;28;20132;-77
2024/01/12 08:45:23;;;;;;;15.40;14.07;;;1.00;99.90;;;;;;4991482;28;20056;-77
2024/01/12 08:47:49;;;;;;;20.35;14.23;;;1.00;99.90;;;;;;5019256;28;20037;-77
2024/01/12 08:50:15;;;;;;;17.92;15.85;;;1.10;99.90;;;;;;5008118;28;20052;-77
2024/01/12 08:52:40;;;;;;;16.58;14.98;;;1.20;99.90;;;;;;4974964;28;20497;-77
2024/01/12 08:55:09;;;;;;;15.77;14.23;;;1.00;99.90;;;;;;4986178;28;20041;-77
2024/01/12 08:57:36;;;;;;;16.50;14.77;;;1.00;99.90;;;;;;4990127;28;20562;-77
2024/01/12 09:00:03;;;;;;;16.13;14.50;;;1.00;99.90;;;;;;5008528;28;20045;-77
2024/01/12 09:02:29;;;;;;;16.00;14.35;;;1.00;99.90;;;;;;5007596;28;20041;-77
2024/01/12 09:04:55;;;;;;;17.30;15.43;;;1.00;99.90;;;;;;5007263;28;20080;-77
2024/01/12 09:07:20;;;;;;;17.38;15.65;;;1.10;99.90;;;;;;5005432;28;20104;-77
2024/01/12 09:09:46;;;;;;;17.05;15.50;;;1.10;99.90;;;;;;5006433;28;20058;-77
2024/01/12 09:12:12;;;;;;;16.45;15.02;;;1.10;99.90;;;;;;4991575;28;20101;-77
2024/01/12 09:14:37;;;;;;;16.60;15.27;;;1.70;99.90;;;;;;5004244;28;20153;-77
2024/01/12 09:17:03;;;;;;;16.20;14.50;;;1.20;99.90;;;;;;4989089;28;20080;-77
2024/01/12 09:19:29;;;;;;;16.83;15.30;;;1.20;99.90;;;;;;4999879;28;20053;-77
2024/01/12 09:21:55;;;;;;;15.95;14.23;;;1.20;99.90;;;;;;5007820;28;20045;-77
2024/01/12 09:24:20;;;;;;;17.33;15.18;;;1.20;99.90;;;;;;5007512;28;20048;-77
2024/01/12 09:26:46;;;;;;;16.58;15.05;;;1.20;99.90;;;;;;4995083;28;20046;-78
2024/01/12 09:29:12;;;;;;;18.50;16.52;;;1.20;99.90;;;;;;5020150;28;20045;-77
2024/01/12 09:31:38;;;;;;;17.55;15.93;;;1.60;99.90;;;;;;5015149;28;20062;-79
2024/01/12 09:34:04;;;;;;;20.20;16.45;;;1.30;99.90;;;;;;5004342;28;20038;-77
2024/01/12 09:36:30;;;;;;;17.60;16.10;;;1.30;99.90;;;;;;5005699;28;20099;-77
2024/01/12 09:38:55;;;;;;;17.10;15.77;;;1.30;99.90;;;;;;5006755;28;20052;-77
2024/01/12 09:41:36;;;;;;;16.08;14.88;;;1.30;99.90;;;;;;5005929;28;20450;-76
2024/01/12 09:44:06;;;;;;;18.85;15.63;;;1.40;99.90;;;;;;5020753;28;20382;-77
2024/01/12 09:46:36;;;;;;;16.08;14.73;;;1.40;99.90;;;;;;5014737;28;20046;-78
2024/01/12 09:49:02;;;;;;;18.70;15.60;;;1.50;99.90;;;;;;5031143;28;20084;-77
2024/01/12 09:51:28;;;;;;;16.35;14.88;;;1.50;99.90;;;;;;5004417;28;20034;-77
2024/01/12 09:53:54;;;;;;;19.42;16.02;;;1.50;99.90;;;;;;5002385;28;20132;-76
2024/01/12 09:56:22;;;;;;;17.70;15.95;;;1.50;99.90;;;;;;5036274;28;20048;-77
2024/01/12 09:58:47;;;;;;;16.48;14.85;;;1.50;99.90;;;;;;4991596;28;20112;-77
2024/01/12 10:01:14;;;;;;;18.48;16.77;;;1.50;99.90;;;;;;5005601;28;20140;-77
2024/01/12 10:03:41;;;;;;;18.10;16.25;;;1.90;99.90;;;;;;5023605;28;20029;-78
2024/01/12 10:06:07;;;;;;;17.00;15.38;;;1.60;99.90;;;;;;5005977;28;20068;-77
2024/01/12 10:08:37;;;;;;;17.48;15.45;;;1.60;99.90;;;;;;5002555;28;20417;-77
2024/01/12 10:11:03;;;;;;;17.27;15.55;;;1.60;99.90;;;;;;5002755;28;20690;-77
2024/01/12 10:13:28;;;;;;;18.83;17.02;;;1.50;99.90;;;;;;5009396;28;20057;-78
2024/01/12 10:15:54;;;;;;;18.45;16.65;;;1.60;99.90;;;;;;4998088;28;20041;-77
2024/01/12 10:18:20;;;;;;;18.77;17.38;;;1.60;99.90;;;;;;5039645;28;20460;-76
2024/01/12 10:20:45;;;;;;;19.10;17.42;;;1.60;99.90;;;;;;5038554;28;20120;-77
2024/01/12 10:23:18;;;;;;;18.20;16.65;;;1.60;99.90;;;;;;5005834;28;20105;-77
2024/01/12 10:25:44;;;;;;;19.05;17.42;;;1.70;99.90;;;;;;5023264;28;20069;-77
2024/01/12 10:28:17;;;;;;;19.38;17.50;;;1.60;99.90;;;;;;5022744;28;20097;-76
2024/01/12 10:30:42;;;;;;;18.83;17.50;;;1.70;99.90;;;;;;5003876;28;20117;-76
2024/01/12 10:33:08;;;;;;;18.88;17.08;;;1.70;99.90;;;;;;5006774;28;20049;-77
2024/01/12 10:35:34;;;;;;;18.55;16.95;;;1.80;99.90;;;;;;4989572;28;20042;-77
2024/01/12 10:38:02;;;;;;;20.25;18.23;;;1.80;99.90;;;;;;5007008;28;20049;-76
2024/01/12 10:40:28;;;;;;;18.92;17.25;;;1.90;99.90;;;;;;5020971;28;20052;-76
2024/01/12 10:42:57;;;;;;;23.08;18.75;;;1.90;99.90;;;;;;5005221;28;20046;-77
2024/01/12 10:45:25;;;;;;;21.95;20.05;;;2.10;99.90;;;;;;5019337;28;20056;-76
2024/01/12 10:48:03;;;;;;;21.13;19.38;;;2.10;99.90;;;;;;5002823;28;20446;-76
2024/01/12 10:50:35;;;;;;;19.30;17.73;;;2.20;99.90;;;;;;5003953;28;20045;-77
2024/01/12 10:53:41;;;;;;;20.10;18.63;;;2.10;99.90;;;;;;5002242;28;20439;-76
2024/01/12 10:56:07;;;;;;;22.23;20.67;;;2.20;99.90;;;;;;5029505;28;20068;-77
2024/01/12 10:58:34;;;;;;;22.02;20.42;;;2.20;99.90;;;;;;5039194;28;20805;-76
2024/01/12 11:01:00;;;;;;;22.23;20.83;;;2.20;99.90;;;;;;4998045;28;20073;-76
2024/01/12 11:03:28;;;;;;;23.35;21.67;;;2.20;99.90;;;;;;5003284;28;20577;-77
2024/01/12 11:05:56;;;;;;;25.50;24.05;;;2.30;99.90;;;;;;5005995;28;20357;-76
2024/01/12 11:08:22;;;;;;;26.65;24.88;;;2.30;99.90;;;;;;5000961;28;20045;-76
2024/01/12 11:10:57;;;;;;;27.00;25.50;;;2.40;99.90;;;;;;5008453;28;20069;-77
2024/01/12 11:13:23;;;;;;;27.48;26.13;;;2.40;99.90;;;;;;5006682;28;20080;-77
2024/01/12 11:15:51;;;;;;;29.38;27.40;;;2.50;99.90;;;;;;5010348;28;20053;-76
2024/01/12 11:18:19;;;;;;;26.63;24.90;;;2.50;99.90;;;;;;5024707;28;20049;-77
2024/01/12 11:20:45;;;;;;;24.55;23.08;;;2.50;99.90;;;;;;5025352;28;20132;-79
2024/01/12 11:23:11;;;;;;;26.45;24.60;;;2.60;99.90;;;;;;4992698;28;20045;-78
2024/01/12 11:25:37;;;;;;;24.73;23.38;;;2.60;99.90;;;;;;5026691;28;20046;-77
2024/01/12 11:28:03;;;;;;;25.95;24.02;;;2.70;99.90;;;;;;5025395;28;20487;-78
2024/01/12 11:30:29;;;;;;;27.00;25.02;;;2.80;99.90;;;;;;5042930;28;20046;-78
2024/01/12 11:33:04;;;;;;;25.80;24.25;;;2.80;99.90;;;;;;5006441;28;20054;-76
2024/01/12 11:35:31;;;;;;;25.20;23.85;;;2.80;99.90;;;;;;5021817;28;20076;-75
2024/01/12 11:38:07;;;;;;;25.85;24.27;;;2.80;99.90;;;;;;5007219;28;20541;-76
2024/01/12 11:40:34;;;;;;;25.77;23.98;;;2.90;99.90;;;;;;5021147;28;20504;-77
2024/01/12 11:43:00;;;;;;;27.13;25.58;;;2.90;99.90;;;;;;4991005;28;20042;-77
2024/01/12 11:45:28;;;;;;;28.02;26.40;;;2.90;99.90;;;;;;4997582;28;20066;-77
2024/01/12 11:47:56;;;;;;;27.70;26.15;;;2.90;99.90;;;;;;4997633;28;20193;-77
2024/01/12 11:50:25;;;;;;;29.02;27.33;;;3.00;99.90;;;;;;4999829;28;20109;-78
2024/01/12 11:53:01;;;;;;;28.05;26.23;;;3.00;99.90;;;;;;5041224;28;20057;-77
2024/01/12 11:55:27;;;;;;;28.75;27.13;;;3.10;99.90;;;;;;5026566;28;20049;-77
2024/01/12 11:57:56;;;;;;;27.95;26.42;;;3.10;99.90;;;;;;5007464;28;20069;-77
2024/01/12 12:00:25;;;;;;;30.42;28.88;;;3.10;99.90;;;;;;5041178;28;20053;-77
2024/01/12 12:02:51;;;;;;;32.38;30.27;;;3.10;99.90;;;;;;5025665;28;20049;-77
2024/01/12 12:05:17;;;;;;;34.10;32.45;;;3.10;99.90;;;;;;5024788;28;20041;-77
2024/01/12 12:07:43;;;;;;;33.85;32.22;;;3.00;99.90;;;;;;5025206;28;20095;-78
2024/01/12 12:10:09;;;;;;;34.70;32.47;;;3.10;99.90;;;;;;5039735;28;20053;-78
2024/01/12 12:12:36;;;;;;;32.85;31.33;;;3.10;99.90;;;;;;5007459;28;20050;-76
2024/01/12 12:15:12;;;;;;;35.05;33.15;;;3.10;99.90;;;;;;5003985;28;20044;-76
2024/01/12 12:17:41;;;;;;;34.50;32.75;;;3.10;99.90;;;;;;5021019;28;20065;-76
2024/01/12 12:20:11;;;;;;;30.88;29.52;;;3.10;99.90;;;;;;5006840;28;20128;-77
2024/01/12 12:22:41;;;;;;;31.90;30.00;;;3.10;99.90;;;;;;5040728;28;20075;-78
2024/01/12 12:25:14;;;;;;;31.50;29.95;;;3.10;99.90;;;;;;5026266;28;20520;-76
2024/01/12 12:27:45;;;;;;;30.45;28.60;;;3.10;99.90;;;;;;5008859;28;20045;-77
2024/01/12 12:30:13;;;;;;;31.67;29.23;;;3.10;99.90;;;;;;5025269;28;20046;-77
2024/01/12 12:32:40;;;;;;;33.75;31.77;;;3.20;99.90;;;;;;5010886;28;20096;-76